createdAt,value
2023-03-10T00:00:31.116Z,86.29
2023-03-10T00:02:58.932Z,86.05
2023-03-10T00:05:26.643Z,85.95
2023-03-10T00:07:54.371Z,85.78
2023-03-10T00:10:22.048Z,86.22
2023-03-10T00:12:49.719Z,86.24
2023-03-10T00:15:17.789Z,86.23
2023-03-10T00:17:45.652Z,86.72
2023-03-10T00:20:13.297Z,86.90
2023-03-10T00:22:42.096Z,86.40
2023-03-10T00:25:09.670Z,86.52
2023-03-10T00:27:37.474Z,86.53
2023-03-10T00:30:05.106Z,86.92
2023-03-10T00:32:32.721Z,87.10
2023-03-10T00:35:00.861Z,86.65
2023-03-10T00:37:28.455Z,87.10
2023-03-10T00:39:57.925Z,86.77
2023-03-10T00:42:25.801Z,86.89
2023-03-10T00:44:53.438Z,87.18
2023-03-10T00:47:21.078Z,87.19
2023-03-10T00:49:48.796Z,87.22
2023-03-10T00:52:16.601Z,87.63
2023-03-10T00:54:44.179Z,86.57
2023-03-10T00:57:11.781Z,87.15
2023-03-10T00:59:50.022Z,87.19
2023-03-10T01:02:18.397Z,87.27
2023-03-10T01:04:46.252Z,87.29
2023-03-10T01:07:13.884Z,87.26
2023-03-10T01:09:41.892Z,87.27
2023-03-10T01:12:09.548Z,87.15
2023-03-10T01:14:37.308Z,87.58
2023-03-10T01:17:05.720Z,87.42
2023-03-10T01:19:33.328Z,87.07
2023-03-10T01:22:01.754Z,86.90
2023-03-10T01:24:29.423Z,87.16
2023-03-10T01:26:56.992Z,87.46
2023-03-10T01:29:24.612Z,87.67
2023-03-10T01:31:52.253Z,87.54
2023-03-10T01:34:20.242Z,87.49
2023-03-10T01:36:47.816Z,87.14
2023-03-10T01:39:15.451Z,87.63
2023-03-10T01:41:43.057Z,86.97
2023-03-10T01:44:11.049Z,87.27
2023-03-10T01:46:39.104Z,86.94
2023-03-10T01:49:06.747Z,86.77
2023-03-10T01:51:34.528Z,87.22
2023-03-10T01:54:02.134Z,87.04
2023-03-10T01:56:29.731Z,86.97
2023-03-10T01:58:57.738Z,86.69
2023-03-10T02:01:25.358Z,86.88
2023-03-10T02:03:53.077Z,86.57
2023-03-10T02:06:21.025Z,86.62
2023-03-10T02:08:48.649Z,87.22
2023-03-10T02:11:16.630Z,86.78
2023-03-10T02:13:44.244Z,86.48
2023-03-10T02:16:12.217Z,87.21
2023-03-10T02:18:39.879Z,87.14
2023-03-10T02:21:07.469Z,86.79
2023-03-10T02:23:35.354Z,87.13
2023-03-10T02:26:02.954Z,87.23
2023-03-10T02:28:30.836Z,86.66
2023-03-10T02:30:58.448Z,86.95
2023-03-10T02:33:26.044Z,87.05
2023-03-10T02:35:53.678Z,87.00
2023-03-10T02:38:21.378Z,86.83
2023-03-10T02:40:49.386Z,87.02
2023-03-10T02:43:17.011Z,87.38
2023-03-10T02:45:44.740Z,87.20
2023-03-10T02:48:13.014Z,86.68
2023-03-10T02:50:40.565Z,86.81
2023-03-10T02:53:08.224Z,86.94
2023-03-10T02:55:35.798Z,87.10
2023-03-10T02:58:03.907Z,87.65
2023-03-10T03:00:31.545Z,87.60
2023-03-10T03:02:59.137Z,87.72
2023-03-10T03:05:27.075Z,87.58
2023-03-10T03:07:54.748Z,87.51
2023-03-10T03:10:22.688Z,87.26
2023-03-10T03:12:51.345Z,87.63
2023-03-10T03:15:18.950Z,87.52
2023-03-10T03:17:46.697Z,87.47
2023-03-10T03:20:15.134Z,87.35
2023-03-10T03:22:42.864Z,87.52
2023-03-10T03:25:10.865Z,86.95
2023-03-10T03:27:38.438Z,87.57
2023-03-10T03:30:06.060Z,87.07
2023-03-10T03:32:34.025Z,87.26
2023-03-10T03:35:01.637Z,87.44
2023-03-10T03:37:29.825Z,87.17
2023-03-10T03:39:57.415Z,87.08
2023-03-10T03:42:24.997Z,87.37
2023-03-10T03:44:52.644Z,87.44
2023-03-10T03:47:20.185Z,87.25
2023-03-10T03:49:48.132Z,87.97
2023-03-10T03:52:15.756Z,87.34
2023-03-10T03:54:44.403Z,87.50
2023-03-10T03:57:11.991Z,87.23
2023-03-10T03:59:39.578Z,87.61
2023-03-10T04:02:07.616Z,87.42
2023-03-10T04:04:35.195Z,87.32
2023-03-10T04:07:02.861Z,87.55
2023-03-10T04:09:30.475Z,87.39
2023-03-10T04:11:58.024Z,87.10
2023-03-10T04:14:26.056Z,87.40
2023-03-10T04:16:53.880Z,87.71
2023-03-10T04:19:21.660Z,87.16
2023-03-10T04:21:49.311Z,87.67
2023-03-10T04:24:16.920Z,87.69
2023-03-10T04:26:44.886Z,87.22
2023-03-10T04:29:12.487Z,87.29
2023-03-10T04:31:40.324Z,88.08
2023-03-10T04:34:07.951Z,87.62
2023-03-10T04:36:35.617Z,87.86
2023-03-10T04:39:05.458Z,87.33
2023-03-10T04:41:33.041Z,87.85
2023-03-10T04:44:00.657Z,87.18
2023-03-10T04:46:28.271Z,87.03
2023-03-10T04:48:56.337Z,87.35
2023-03-10T04:51:24.294Z,87.39
2023-03-10T04:53:51.842Z,87.80
2023-03-10T04:56:19.602Z,87.30
2023-03-10T04:58:47.216Z,87.70
2023-03-10T05:01:14.836Z,87.29
2023-03-10T05:03:42.827Z,87.56
2023-03-10T05:06:10.450Z,87.45
2023-03-10T05:08:38.193Z,86.85
2023-03-10T05:11:05.787Z,87.15
2023-03-10T05:13:33.565Z,87.41
2023-03-10T05:16:01.504Z,87.39
2023-03-10T05:18:29.079Z,87.60
2023-03-10T05:20:56.941Z,87.08
2023-03-10T05:23:24.844Z,86.81
2023-03-10T05:25:52.468Z,87.16
2023-03-10T05:28:20.418Z,87.15
2023-03-10T05:30:48.092Z,87.16
2023-03-10T05:33:15.662Z,86.80
2023-03-10T05:35:43.399Z,87.03
2023-03-10T05:38:11.016Z,87.07
2023-03-10T05:40:39.028Z,86.92
2023-03-10T05:43:06.658Z,86.69
2023-03-10T05:45:35.135Z,86.47
2023-03-10T05:48:02.739Z,86.85
2023-03-10T05:50:30.485Z,86.93
2023-03-10T05:52:58.291Z,86.68
2023-03-10T05:55:28.824Z,86.45
2023-03-10T05:57:56.629Z,86.26
2023-03-10T06:00:24.289Z,86.64
2023-03-10T06:02:51.959Z,86.01
2023-03-10T06:05:19.987Z,86.25
2023-03-10T06:07:48.088Z,86.25
2023-03-10T06:10:15.876Z,86.62
2023-03-10T06:12:43.561Z,86.66
2023-03-10T06:15:11.197Z,86.85
2023-03-10T06:17:39.170Z,87.11
2023-03-10T06:20:07.388Z,87.43
2023-03-10T06:22:35.190Z,87.07
2023-03-10T06:25:02.942Z,87.57
2023-03-10T06:27:30.815Z,87.44
2023-03-10T06:29:59.062Z,87.65
2023-03-10T06:32:26.857Z,87.04
2023-03-10T06:34:54.503Z,87.39
2023-03-10T06:37:22.127Z,87.88
2023-03-10T06:39:49.707Z,87.57
2023-03-10T06:42:17.756Z,87.86
2023-03-10T06:44:47.322Z,88.04
2023-03-10T06:47:16.658Z,87.59
2023-03-10T06:49:44.306Z,87.56
2023-03-10T06:52:12.465Z,87.50
2023-03-10T06:54:40.661Z,87.32
2023-03-10T06:57:08.381Z,87.37
2023-03-10T06:59:41.958Z,87.36
2023-03-10T07:02:09.594Z,87.26
2023-03-10T07:04:37.376Z,86.46
2023-03-10T07:07:05.740Z,85.77
2023-03-10T07:09:33.333Z,86.11
2023-03-10T07:12:01.005Z,85.93
2023-03-10T07:14:29.097Z,85.90
2023-03-10T07:16:56.775Z,85.73
2023-03-10T07:19:24.846Z,85.46
2023-03-10T07:21:52.826Z,85.56
2023-03-10T07:24:22.087Z,85.95
2023-03-10T07:26:49.921Z,86.16
2023-03-10T07:29:17.744Z,85.91
2023-03-10T07:31:45.755Z,85.86
2023-03-10T07:34:13.392Z,85.54
2023-03-10T07:36:42.203Z,85.59
2023-03-10T07:39:09.830Z,85.96
2023-03-10T07:41:37.482Z,85.04
2023-03-10T07:44:05.792Z,85.06
2023-03-10T07:46:33.538Z,85.04
2023-03-10T07:49:04.434Z,84.53
2023-03-10T07:51:32.174Z,84.81
2023-03-10T07:53:59.884Z,84.68
2023-03-10T07:56:28.096Z,84.24
2023-03-10T07:58:55.813Z,84.35
2023-03-10T08:01:23.783Z,84.66
2023-03-10T08:03:51.655Z,84.67
2023-03-10T08:06:19.428Z,84.37
2023-03-10T08:08:47.170Z,85.12
2023-03-10T08:11:14.837Z,84.69
2023-03-10T08:13:42.795Z,83.86
2023-03-10T08:16:10.623Z,84.27
2023-03-10T08:18:39.102Z,83.60
2023-03-10T08:21:07.454Z,83.81
2023-03-10T08:23:35.541Z,84.22
2023-03-10T08:26:03.493Z,83.74
2023-03-10T08:28:32.787Z,84.18
2023-03-10T08:31:05.421Z,83.61
2023-03-10T08:33:33.401Z,83.69
2023-03-10T08:36:01.189Z,83.52
2023-03-10T08:38:29.193Z,83.11
2023-03-10T08:40:57.534Z,83.37
2023-03-10T08:43:25.390Z,82.98
2023-03-10T08:45:53.751Z,83.01
2023-03-10T08:48:21.537Z,82.64
2023-03-10T08:50:49.631Z,83.07
2023-03-10T08:53:17.390Z,83.08
2023-03-10T08:55:45.238Z,83.05
2023-03-10T08:58:13.428Z,83.14
2023-03-10T09:00:43.657Z,83.40
2023-03-10T09:03:15.378Z,84.10
2023-03-10T09:05:43.210Z,84.01
2023-03-10T09:08:11.226Z,84.29
2023-03-10T09:10:39.315Z,84.62
2023-03-10T09:13:13.661Z,83.86
2023-03-10T09:15:42.713Z,83.83
2023-03-10T09:18:10.434Z,83.97
2023-03-10T09:20:38.101Z,84.01
2023-03-10T09:23:06.403Z,84.50
2023-03-10T09:25:34.166Z,84.18
2023-03-10T09:28:02.283Z,83.78
2023-03-10T09:30:30.872Z,84.47
2023-03-10T09:32:58.811Z,84.12
2023-03-10T09:35:26.971Z,84.11
2023-03-10T09:37:54.925Z,84.21
2023-03-10T09:40:22.760Z,84.17
2023-03-10T09:42:50.559Z,84.56
2023-03-10T09:45:19.074Z,84.80
2023-03-10T09:47:47.192Z,84.54
2023-03-10T09:50:14.856Z,85.02
2023-03-10T09:52:42.735Z,84.74
2023-03-10T09:55:13.159Z,85.55
2023-03-10T09:57:40.977Z,85.50
2023-03-10T10:00:09.562Z,85.21
2023-03-10T10:02:37.330Z,85.20
2023-03-10T10:05:05.513Z,84.86
2023-03-10T10:07:33.713Z,85.45
2023-03-10T10:10:01.720Z,85.17
2023-03-10T10:12:29.944Z,84.78
2023-03-10T10:14:57.995Z,84.79
2023-03-10T10:17:26.087Z,84.40
2023-03-10T10:19:53.842Z,84.12
2023-03-10T10:22:21.661Z,84.08
2023-03-10T10:24:50.665Z,84.22
2023-03-10T10:27:21.795Z,84.15
2023-03-10T10:29:50.844Z,83.52
2023-03-10T10:32:18.882Z,83.85
2023-03-10T10:34:46.688Z,83.92
2023-03-10T10:37:16.030Z,83.21
2023-03-10T10:39:43.972Z,82.51
2023-03-10T10:42:12.015Z,81.92
2023-03-10T10:44:40.056Z,81.98
2023-03-10T10:47:07.967Z,81.37
2023-03-10T10:49:36.584Z,81.44
2023-03-10T10:52:04.759Z,80.06
2023-03-10T10:54:32.895Z,80.16
2023-03-10T10:57:00.595Z,80.35
2023-03-10T10:59:28.633Z,79.63
2023-03-10T11:01:56.530Z,80.12
2023-03-10T11:04:24.298Z,80.11
2023-03-10T11:06:52.608Z,80.21
2023-03-10T11:09:20.435Z,80.18
2023-03-10T11:11:48.348Z,80.19
2023-03-10T11:14:16.843Z,80.17
2023-03-10T11:16:44.593Z,80.47
2023-03-10T11:19:12.809Z,79.89
2023-03-10T11:21:40.752Z,80.38
2023-03-10T11:24:08.944Z,79.60
2023-03-10T11:26:37.445Z,79.50
2023-03-10T11:29:07.550Z,78.45
2023-03-10T11:31:35.641Z,74.84
2023-03-10T11:34:04.259Z,72.27
2023-03-10T11:36:32.605Z,71.52
2023-03-10T11:39:01.253Z,73.17
2023-03-10T11:41:29.060Z,74.16
2023-03-10T11:43:57.114Z,75.46
2023-03-10T11:46:25.244Z,76.22
2023-03-10T11:48:53.137Z,77.17
2023-03-10T11:51:21.220Z,77.08
2023-03-10T11:53:50.142Z,76.39
2023-03-10T11:56:18.666Z,76.83
2023-03-10T11:58:46.651Z,77.27
2023-03-10T12:01:14.546Z,77.43
2023-03-10T12:03:42.748Z,77.52
2023-03-10T12:06:10.734Z,78.30
2023-03-10T12:08:38.966Z,78.38
2023-03-10T12:11:07.037Z,77.62
2023-03-10T12:13:34.916Z,77.94
2023-03-10T12:16:03.054Z,77.76
2023-03-10T12:18:31.114Z,77.96
2023-03-10T12:20:59.178Z,77.65
2023-03-10T12:23:27.132Z,77.51
2023-03-10T12:25:55.041Z,77.59
2023-03-10T12:28:24.726Z,77.63
2023-03-10T12:30:52.555Z,77.52
2023-03-10T12:33:20.762Z,77.71
2023-03-10T12:35:48.995Z,77.96
2023-03-10T12:38:16.895Z,78.00
2023-03-10T12:40:45.487Z,79.34
2023-03-10T12:43:13.431Z,80.34
2023-03-10T12:45:41.567Z,81.07
2023-03-10T12:48:10.567Z,80.95
2023-03-10T12:50:38.428Z,82.30
2023-03-10T12:53:06.583Z,82.96
2023-03-10T12:55:34.269Z,82.50
2023-03-10T12:58:02.831Z,83.33
2023-03-10T13:00:30.815Z,82.83
2023-03-10T13:02:58.857Z,83.13
2023-03-10T13:05:26.994Z,83.34
2023-03-10T13:07:54.770Z,83.45
2023-03-10T13:10:22.964Z,83.27
2023-03-10T13:12:51.525Z,83.08
2023-03-10T13:15:19.246Z,83.71
2023-03-10T13:17:47.359Z,83.92
2023-03-10T13:20:15.405Z,83.80
2023-03-10T13:22:43.699Z,83.04
2023-03-10T13:25:11.807Z,82.94
2023-03-10T13:27:39.672Z,82.98
2023-03-10T13:30:08.081Z,82.84
2023-03-10T13:32:35.848Z,82.71
2023-03-10T13:35:03.780Z,82.41
2023-03-10T13:37:31.680Z,82.23
2023-03-10T13:39:59.572Z,82.73
2023-03-10T13:42:42.772Z,82.36
2023-03-10T13:45:12.185Z,81.79
2023-03-10T13:47:40.480Z,82.35
2023-03-10T13:50:08.309Z,82.29
2023-03-10T13:52:36.794Z,82.73
2023-03-10T13:55:04.938Z,83.08
2023-03-10T13:57:32.950Z,83.42
2023-03-10T14:00:00.897Z,83.25
2023-03-10T14:02:29.139Z,83.74
2023-03-10T14:04:58.057Z,83.92
2023-03-10T14:07:26.425Z,83.94
2023-03-10T14:09:54.356Z,83.85
2023-03-10T14:12:22.125Z,83.73
2023-03-10T14:14:51.972Z,83.76
2023-03-10T14:17:20.588Z,83.49
2023-03-10T14:19:48.397Z,83.48
2023-03-10T14:22:16.678Z,83.41
2023-03-10T14:24:44.883Z,83.22
2023-03-10T14:27:13.320Z,83.18
2023-03-10T14:29:41.838Z,83.39
2023-03-10T14:32:10.102Z,83.62
2023-03-10T14:34:38.379Z,83.25
2023-03-10T14:37:06.268Z,83.77
2023-03-10T14:39:34.656Z,83.72
2023-03-10T14:42:02.598Z,83.24
2023-03-10T14:44:30.500Z,83.49
2023-03-10T14:46:58.803Z,83.75
2023-03-10T14:49:26.818Z,84.08
2023-03-10T14:51:55.073Z,84.26
2023-03-10T14:54:23.456Z,83.99
2023-03-10T14:56:52.731Z,84.24
2023-03-10T14:59:20.814Z,84.31
2023-03-10T15:01:49.068Z,84.73
2023-03-10T15:04:16.980Z,84.79
2023-03-10T15:06:45.251Z,84.73
2023-03-10T15:09:13.193Z,84.76
2023-03-10T15:11:41.428Z,85.58
2023-03-10T15:14:11.060Z,85.52
2023-03-10T15:16:39.453Z,85.23
2023-03-10T15:19:07.844Z,85.70
2023-03-10T15:21:35.710Z,85.66
2023-03-10T15:24:07.944Z,85.87
2023-03-10T15:26:35.839Z,86.41
2023-03-10T15:29:03.752Z,86.74
2023-03-10T15:31:32.280Z,86.87
2023-03-10T15:34:00.190Z,86.75
2023-03-10T15:36:29.297Z,86.57
2023-03-10T15:38:57.273Z,86.70
2023-03-10T15:41:25.143Z,86.85
2023-03-10T15:43:53.421Z,87.29
2023-03-10T15:46:21.462Z,87.39
2023-03-10T15:48:49.821Z,87.42
2023-03-10T15:51:18.352Z,87.62
2023-03-10T15:53:46.431Z,87.61
2023-03-10T15:56:16.140Z,87.66
2023-03-10T15:58:44.197Z,87.17
2023-03-10T16:01:12.734Z,87.51
2023-03-10T16:03:40.650Z,87.55
2023-03-10T16:06:09.925Z,87.46
2023-03-10T16:08:39.876Z,87.83
2023-03-10T16:11:09.421Z,87.74
2023-03-10T16:13:37.513Z,87.81
2023-03-10T16:16:05.507Z,87.80
2023-03-10T16:18:33.709Z,87.64
2023-03-10T16:21:02.172Z,87.92
2023-03-10T16:23:30.112Z,87.75
2023-03-10T16:25:58.591Z,87.72
2023-03-10T16:28:26.417Z,87.82
2023-03-10T16:30:54.301Z,87.38
2023-03-10T16:33:22.735Z,87.84
2023-03-10T16:35:50.693Z,88.04
2023-03-10T16:38:19.198Z,87.73
2023-03-10T16:40:48.583Z,87.95
2023-03-10T16:43:17.845Z,87.64
2023-03-10T16:45:49.287Z,87.90
2023-03-10T16:48:17.241Z,87.76
2023-03-10T16:50:45.216Z,87.80
2023-03-10T16:53:13.112Z,87.94
2023-03-10T16:55:40.905Z,87.83
2023-03-10T16:58:09.201Z,88.03
2023-03-10T17:00:37.143Z,87.92
2023-03-10T17:03:06.681Z,87.70
2023-03-10T17:05:34.444Z,87.97
2023-03-10T17:08:03.070Z,87.98
2023-03-10T17:10:31.442Z,87.14
2023-03-10T17:12:59.334Z,87.75
2023-03-10T17:15:27.645Z,87.72
2023-03-10T17:17:55.502Z,87.00
2023-03-10T17:20:23.644Z,87.07
2023-03-10T17:22:52.024Z,87.35
2023-03-10T17:25:20.221Z,87.80
2023-03-10T17:27:48.548Z,88.03
2023-03-10T17:30:19.314Z,87.94
2023-03-10T17:32:47.295Z,88.21
2023-03-10T17:35:15.460Z,88.30
2023-03-10T17:37:45.100Z,88.72
2023-03-10T17:40:15.469Z,88.80
2023-03-10T17:42:43.672Z,88.91
2023-03-10T17:45:11.688Z,88.58
2023-03-10T17:47:40.434Z,89.01
2023-03-10T17:50:08.920Z,88.64
2023-03-10T17:52:37.221Z,89.80
2023-03-10T17:55:05.266Z,89.59
2023-03-10T17:57:33.163Z,89.77
2023-03-10T18:00:01.532Z,89.56
2023-03-10T18:02:29.593Z,89.51
2023-03-10T18:04:57.881Z,89.29
2023-03-10T18:07:26.205Z,90.05
2023-03-10T18:09:54.516Z,89.98
2023-03-10T18:12:22.919Z,89.79
2023-03-10T18:14:50.903Z,90.28
2023-03-10T18:17:19.093Z,90.51
2023-03-10T18:19:46.921Z,90.54
2023-03-10T18:22:15.011Z,90.72
2023-03-10T18:24:43.101Z,90.50
2023-03-10T18:27:10.972Z,90.56
2023-03-10T18:29:39.061Z,91.09
2023-03-10T18:32:06.873Z,90.96
2023-03-10T18:34:34.800Z,91.07
2023-03-10T18:37:03.213Z,91.21
2023-03-10T18:39:31.235Z,90.62
2023-03-10T18:41:59.152Z,90.92
2023-03-10T18:44:27.113Z,90.74
2023-03-10T18:46:55.054Z,90.80
2023-03-10T18:49:23.540Z,91.33
2023-03-10T18:51:51.461Z,90.89
2023-03-10T18:54:21.672Z,91.08
2023-03-10T18:56:49.537Z,91.06
2023-03-10T18:59:19.375Z,91.06
2023-03-10T19:01:47.730Z,91.22
2023-03-10T19:04:15.784Z,91.17
2023-03-10T19:06:44.188Z,91.19
2023-03-10T19:09:13.204Z,90.93
2023-03-10T19:11:41.170Z,91.75
2023-03-10T19:14:09.666Z,91.51
2023-03-10T19:16:39.640Z,91.18
2023-03-10T19:19:07.815Z,90.88
2023-03-10T19:21:35.887Z,90.71
2023-03-10T19:24:03.687Z,90.88
2023-03-10T19:26:33.362Z,90.82
2023-03-10T19:29:01.513Z,91.33
2023-03-10T19:31:29.586Z,90.83
2023-03-10T19:33:57.501Z,90.75
2023-03-10T19:36:26.773Z,91.23
2023-03-10T19:38:55.614Z,90.64
2023-03-10T19:41:23.710Z,91.00
2023-03-10T19:43:52.489Z,91.13
2023-03-10T19:46:20.489Z,90.54
2023-03-10T19:48:48.364Z,90.97
2023-03-10T19:51:16.758Z,90.60
2023-03-10T19:53:44.606Z,90.19
2023-03-10T19:56:12.964Z,90.24
2023-03-10T19:58:41.039Z,90.29
2023-03-10T20:01:08.882Z,90.39
2023-03-10T20:03:37.446Z,90.48
2023-03-10T20:06:05.478Z,90.44
2023-03-10T20:08:34.301Z,90.43
2023-03-10T20:11:03.592Z,90.43
2023-03-10T20:13:31.463Z,90.12
2023-03-10T20:15:59.600Z,90.02
2023-03-10T20:18:27.421Z,90.64
2023-03-10T20:20:55.592Z,90.09
2023-03-10T20:23:23.891Z,90.25
2023-03-10T20:25:51.714Z,90.26
2023-03-10T20:28:20.337Z,90.13
2023-03-10T20:30:48.155Z,90.25
2023-03-10T20:33:16.419Z,89.86
2023-03-10T20:35:44.692Z,90.33
2023-03-10T20:38:12.660Z,90.10
2023-03-10T20:40:40.968Z,90.14
2023-03-10T20:43:09.450Z,90.10
2023-03-10T20:45:39.596Z,90.30
2023-03-10T20:48:07.672Z,90.36
2023-03-10T20:50:35.693Z,90.22
2023-03-10T20:53:03.665Z,89.86
2023-03-10T20:55:31.448Z,89.93
2023-03-10T20:57:59.688Z,89.33
2023-03-10T21:00:27.619Z,90.03
2023-03-10T21:02:57.402Z,89.36
2023-03-10T21:05:26.136Z,90.07
2023-03-10T21:07:54.473Z,89.77
2023-03-10T21:10:22.705Z,89.51
2023-03-10T21:12:50.651Z,89.49
2023-03-10T21:15:19.589Z,89.25
2023-03-10T21:17:47.965Z,89.26
2023-03-10T21:20:15.908Z,89.74
2023-03-10T21:22:43.828Z,89.23
2023-03-10T21:25:12.885Z,88.97
2023-03-10T21:27:40.852Z,89.28
2023-03-10T21:30:09.970Z,89.14
2023-03-10T21:32:38.115Z,89.05
2023-03-10T21:35:06.375Z,89.65
2023-03-10T21:37:35.770Z,89.68
2023-03-10T21:40:09.244Z,89.02
2023-03-10T21:42:37.505Z,88.75
2023-03-10T21:45:05.461Z,88.86
2023-03-10T21:47:33.671Z,88.76
2023-03-10T21:50:01.820Z,89.31
2023-03-10T21:52:29.669Z,89.32
2023-03-10T21:54:57.985Z,88.85
2023-03-10T21:57:25.886Z,89.20
2023-03-10T21:59:53.969Z,88.87
2023-03-10T22:02:21.882Z,88.91
2023-03-10T22:04:49.875Z,89.22
2023-03-10T22:07:18.219Z,89.01
2023-03-10T22:09:46.090Z,88.66
2023-03-10T22:12:16.108Z,88.61
2023-03-10T22:14:43.955Z,88.96
2023-03-10T22:17:12.011Z,88.67
2023-03-10T22:19:40.306Z,88.84
2023-03-10T22:22:08.199Z,89.33
2023-03-10T22:24:36.611Z,88.60
2023-03-10T22:27:04.649Z,88.85
2023-03-10T22:29:32.624Z,88.65
2023-03-10T22:32:01.169Z,88.70
2023-03-10T22:34:29.370Z,88.41
2023-03-10T22:36:57.429Z,88.67
2023-03-10T22:39:25.469Z,88.88
2023-03-10T22:41:53.346Z,88.42
2023-03-10T22:44:21.403Z,88.83
2023-03-10T22:46:49.337Z,88.83
2023-03-10T22:49:18.185Z,88.43
2023-03-10T22:51:45.962Z,88.51
2023-03-10T22:54:13.864Z,88.37
2023-03-10T22:56:42.275Z,89.05
2023-03-10T22:59:10.132Z,88.76
2023-03-10T23:01:38.429Z,88.09
2023-03-10T23:04:06.635Z,88.80
2023-03-10T23:06:35.850Z,88.68
2023-03-10T23:09:04.479Z,88.96
2023-03-10T23:11:32.351Z,88.65
2023-03-10T23:14:03.876Z,88.26
2023-03-10T23:16:34.462Z,88.54
2023-03-10T23:19:02.146Z,88.20
2023-03-10T23:21:30.252Z,88.62
2023-03-10T23:23:58.084Z,88.23
2023-03-10T23:26:27.289Z,88.81
2023-03-10T23:28:54.939Z,88.77
2023-03-10T23:31:22.741Z,88.59
2023-03-10T23:33:51.036Z,88.58
2023-03-10T23:36:19.244Z,88.52
2023-03-10T23:38:48.350Z,88.45
2023-03-10T23:41:16.039Z,88.62
2023-03-10T23:43:43.718Z,88.53
2023-03-10T23:46:11.808Z,88.45
2023-03-10T23:48:39.596Z,87.99
2023-03-10T23:51:07.530Z,88.51
2023-03-10T23:53:35.264Z,88.35
2023-03-10T23:56:03.031Z,88.01
2023-03-10T23:58:31.092Z,88.52
